createdAt,value
2019-05-09T00:01:39.384Z,6.56
2019-05-09T00:04:09.799Z,6.62
2019-05-09T00:06:40.011Z,6.67
2019-05-09T00:09:10.237Z,6.61
2019-05-09T00:11:40.794Z,6.56
2019-05-09T00:14:13.422Z,6.50
2019-05-09T00:16:44.055Z,6.55
2019-05-09T00:19:14.691Z,6.53
2019-05-09T00:21:54.078Z,6.50
2019-05-09T00:24:24.831Z,6.55
2019-05-09T00:26:55.213Z,6.47
2019-05-09T00:29:33.440Z,6.42
2019-05-09T00:32:08.885Z,6.49
2019-05-09T00:34:39.322Z,6.43
2019-05-09T00:37:09.652Z,6.41
2019-05-09T00:39:39.863Z,6.54
2019-05-09T00:42:10.107Z,6.55
2019-05-09T00:44:53.279Z,6.54
2019-05-09T00:47:28.637Z,6.54
2019-05-09T00:49:59.105Z,6.49
2019-05-09T00:52:29.310Z,6.52
2019-05-09T00:54:59.904Z,6.63
2019-05-09T00:57:36.247Z,6.66
2019-05-09T01:00:14.696Z,6.77
2019-05-09T01:02:45.262Z,6.74
2019-05-09T01:05:16.174Z,6.73
2019-05-09T01:07:46.475Z,6.61
2019-05-09T01:10:17.056Z,6.62
2019-05-09T01:12:47.655Z,6.50
2019-05-09T01:15:18.596Z,6.50
2019-05-09T01:17:48.849Z,6.50
2019-05-09T01:20:20.118Z,6.49
2019-05-09T01:22:50.752Z,6.45
2019-05-09T01:25:21.337Z,6.57
2019-05-09T01:27:53.696Z,6.61
2019-05-09T01:30:24.348Z,6.67
2019-05-09T01:33:13.623Z,6.67
2019-05-09T01:35:44.731Z,6.64
2019-05-09T01:38:15.098Z,6.60
2019-05-09T01:40:45.338Z,6.58
2019-05-09T01:43:17.099Z,6.57
2019-05-09T01:45:47.729Z,6.51
2019-05-09T01:48:18.382Z,6.46
2019-05-09T01:50:49.042Z,6.41
2019-05-09T01:53:20.996Z,6.49
2019-05-09T01:56:03.661Z,6.62
2019-05-09T01:58:34.587Z,6.63
2019-05-09T02:01:07.167Z,6.59
2019-05-09T02:03:37.465Z,6.44
2019-05-09T02:06:07.773Z,6.54
2019-05-09T02:08:38.029Z,6.52
2019-05-09T02:11:08.271Z,6.38
2019-05-09T02:13:41.373Z,6.41
2019-05-09T02:16:13.987Z,6.43
2019-05-09T02:18:45.763Z,6.42
2019-05-09T02:21:16.122Z,6.48
2019-05-09T02:23:46.357Z,6.54
2019-05-09T02:26:16.642Z,6.60
2019-05-09T02:28:47.215Z,6.67
2019-05-09T02:31:17.842Z,6.61
2019-05-09T02:33:48.461Z,6.59
2019-05-09T02:36:19.228Z,6.59
2019-05-09T02:38:49.581Z,6.54
2019-05-09T02:41:20.041Z,6.53
2019-05-09T02:43:51.915Z,6.52
2019-05-09T02:46:42.009Z,6.52
2019-05-09T02:49:12.716Z,6.66
2019-05-09T02:51:43.689Z,6.72
2019-05-09T02:54:14.319Z,6.63
2019-05-09T02:56:44.628Z,6.50
2019-05-09T02:59:19.543Z,6.63
2019-05-09T03:01:51.477Z,6.64
2019-05-09T03:04:21.709Z,6.56
2019-05-09T03:06:51.924Z,6.57
2019-05-09T03:09:22.221Z,6.52
2019-05-09T03:11:52.439Z,6.72
2019-05-09T03:14:22.652Z,6.77
2019-05-09T03:16:52.864Z,6.83
2019-05-09T03:19:23.114Z,6.92
2019-05-09T03:21:58.212Z,6.92
2019-05-09T03:24:29.126Z,6.99
2019-05-09T03:27:01.073Z,7.17
2019-05-09T03:29:35.864Z,7.35
2019-05-09T03:32:09.200Z,7.44
2019-05-09T03:34:38.805Z,7.50
2019-05-09T03:37:09.033Z,7.62
2019-05-09T03:39:39.259Z,7.68
2019-05-09T03:42:09.487Z,7.76
2019-05-09T03:44:39.703Z,7.89
2019-05-09T03:47:11.551Z,7.96
2019-05-09T03:49:41.848Z,8.10
2019-05-09T03:52:12.077Z,8.14
2019-05-09T03:54:42.300Z,8.21
2019-05-09T03:57:15.428Z,8.29
2019-05-09T03:59:48.001Z,8.42
2019-05-09T04:02:17.954Z,8.57
2019-05-09T04:04:48.683Z,8.67
2019-05-09T04:07:19.330Z,8.79
2019-05-09T04:09:49.950Z,8.97
2019-05-09T04:12:20.306Z,9.34
2019-05-09T04:14:53.992Z,9.72
2019-05-09T04:17:27.955Z,9.75
2019-05-09T04:19:57.909Z,9.80
2019-05-09T04:22:28.165Z,10.26
2019-05-09T04:24:58.754Z,10.60
2019-05-09T04:27:31.042Z,10.89
2019-05-09T04:30:01.932Z,10.90
2019-05-09T04:32:32.641Z,10.99
2019-05-09T04:35:08.030Z,11.09
2019-05-09T04:37:38.099Z,11.25
2019-05-09T04:40:08.723Z,11.81
2019-05-09T04:42:43.037Z,12.19
2019-05-09T04:45:13.369Z,12.44
2019-05-09T04:47:43.710Z,13.24
2019-05-09T04:50:15.333Z,13.67
2019-05-09T04:52:47.523Z,13.75
2019-05-09T04:55:20.174Z,13.61
2019-05-09T04:57:51.003Z,13.41
2019-05-09T05:00:32.352Z,13.19
2019-05-09T05:03:02.600Z,13.17
2019-05-09T05:05:34.540Z,13.22
2019-05-09T05:08:04.771Z,13.39
2019-05-09T05:10:37.253Z,13.74
2019-05-09T05:13:23.276Z,13.94
2019-05-09T05:15:43.387Z,14.15
2019-05-09T05:18:20.229Z,14.21
2019-05-09T05:20:52.617Z,14.43
2019-05-09T05:23:34.888Z,14.48
2019-05-09T05:26:05.543Z,14.66
2019-05-09T05:28:38.040Z,14.91
2019-05-09T05:31:07.868Z,14.77
2019-05-09T05:33:51.108Z,14.91
2019-05-09T05:36:20.881Z,15.00
2019-05-09T05:38:51.830Z,15.07
2019-05-09T05:41:22.194Z,15.15
2019-05-09T05:43:52.423Z,15.27
2019-05-09T05:46:24.329Z,15.55
2019-05-09T05:48:57.758Z,15.52
2019-05-09T05:51:30.517Z,15.89
2019-05-09T05:54:02.689Z,15.88
2019-05-09T05:56:32.954Z,16.01
2019-05-09T05:59:03.574Z,16.09
2019-05-09T06:01:34.297Z,16.23
2019-05-09T06:04:04.809Z,16.33
2019-05-09T06:06:37.461Z,16.47
2019-05-09T06:09:10.172Z,16.82
2019-05-09T06:11:51.141Z,17.35
2019-05-09T06:14:21.411Z,17.42
2019-05-09T06:16:53.171Z,17.64
2019-05-09T06:19:24.746Z,18.32
2019-05-09T06:21:57.225Z,18.77
2019-05-09T06:24:28.207Z,18.88
2019-05-09T06:26:58.939Z,19.41
2019-05-09T06:29:29.540Z,19.45
2019-05-09T06:32:00.849Z,19.57
2019-05-09T06:34:32.561Z,19.74
2019-05-09T06:37:03.560Z,20.18
2019-05-09T06:39:33.907Z,20.58
2019-05-09T06:42:04.850Z,21.55
2019-05-09T06:44:42.639Z,22.00
2019-05-09T06:47:20.729Z,22.45
2019-05-09T06:49:58.530Z,23.26
2019-05-09T06:52:28.849Z,24.71
2019-05-09T06:54:59.188Z,25.90
2019-05-09T06:57:29.580Z,26.96
2019-05-09T06:59:59.791Z,26.68
2019-05-09T07:02:34.428Z,27.12
2019-05-09T07:05:09.877Z,27.95
2019-05-09T07:07:41.839Z,27.75
2019-05-09T07:10:12.237Z,28.04
2019-05-09T07:12:42.485Z,28.20
2019-05-09T07:15:13.250Z,27.41
2019-05-09T07:17:43.530Z,27.32
2019-05-09T07:20:13.844Z,27.77
2019-05-09T07:22:48.266Z,27.73
2019-05-09T07:25:22.928Z,27.17
2019-05-09T07:27:53.229Z,27.21
2019-05-09T07:30:43.647Z,28.04
2019-05-09T07:33:15.501Z,27.74
2019-05-09T07:35:47.614Z,27.75
2019-05-09T07:38:19.925Z,27.72
2019-05-09T07:40:51.405Z,28.41
2019-05-09T07:43:21.781Z,27.71
2019-05-09T07:46:04.559Z,27.13
2019-05-09T07:48:38.091Z,27.64
2019-05-09T07:51:08.339Z,27.31
2019-05-09T07:53:38.757Z,27.59
2019-05-09T07:56:09.115Z,27.80
2019-05-09T07:58:39.291Z,28.37
2019-05-09T08:01:09.585Z,29.18
2019-05-09T08:03:39.774Z,29.84
2019-05-09T08:06:10.455Z,28.46
2019-05-09T08:08:41.817Z,28.40
2019-05-09T08:11:12.575Z,28.81
2019-05-09T08:13:43.313Z,29.55
2019-05-09T08:16:20.426Z,29.69
2019-05-09T08:18:50.700Z,30.09
2019-05-09T08:21:38.363Z,30.32
2019-05-09T08:24:09.689Z,30.67
2019-05-09T08:26:39.958Z,30.26
2019-05-09T08:29:10.562Z,29.56
2019-05-09T08:31:41.223Z,28.49
2019-05-09T08:34:11.949Z,28.64
2019-05-09T08:36:42.747Z,28.70
2019-05-09T08:39:13.152Z,28.56
2019-05-09T08:41:43.520Z,28.16
2019-05-09T08:44:15.161Z,28.09
2019-05-09T08:46:48.146Z,28.60
2019-05-09T08:49:20.957Z,28.32
2019-05-09T08:52:10.361Z,28.18
2019-05-09T08:54:44.431Z,29.02
2019-05-09T08:57:14.944Z,28.92
2019-05-09T08:59:48.162Z,28.31
2019-05-09T09:02:21.962Z,28.79
2019-05-09T09:04:49.517Z,28.18
2019-05-09T09:07:19.853Z,28.36
2019-05-09T09:09:50.065Z,28.08
2019-05-09T09:12:30.260Z,27.65
2019-05-09T09:14:52.931Z,27.89
2019-05-09T09:17:23.713Z,27.43
2019-05-09T09:19:54.000Z,27.54
2019-05-09T09:22:24.253Z,27.43
2019-05-09T09:24:54.478Z,27.43
2019-05-09T09:27:24.722Z,27.10
2019-05-09T09:29:55.053Z,26.08
2019-05-09T09:32:28.053Z,25.04
2019-05-09T09:34:58.768Z,25.01
2019-05-09T09:37:44.697Z,25.63
2019-05-09T09:40:01.216Z,25.45
2019-05-09T09:42:31.818Z,24.54
2019-05-09T09:45:02.142Z,23.66
2019-05-09T09:47:32.771Z,23.64
2019-05-09T09:50:04.270Z,23.77
2019-05-09T09:52:35.276Z,23.60
2019-05-09T09:55:08.993Z,23.03
2019-05-09T09:57:39.832Z,22.65
2019-05-09T10:00:31.203Z,22.94
2019-05-09T10:03:02.756Z,22.84
2019-05-09T10:05:38.081Z,22.09
2019-05-09T10:08:13.853Z,21.72
2019-05-09T10:10:41.356Z,21.21
2019-05-09T10:13:14.943Z,20.77
2019-05-09T10:15:53.543Z,21.03
2019-05-09T10:18:43.776Z,21.20
2019-05-09T10:21:15.718Z,21.29
2019-05-09T10:23:48.376Z,21.50
2019-05-09T10:26:18.375Z,21.55
2019-05-09T10:28:50.219Z,21.73
2019-05-09T10:31:20.931Z,21.71
2019-05-09T10:33:51.265Z,21.91
2019-05-09T10:36:21.504Z,22.16
2019-05-09T10:38:52.863Z,22.44
2019-05-09T10:41:23.887Z,22.99
2019-05-09T10:43:57.854Z,23.26
2019-05-09T10:46:48.101Z,23.25
2019-05-09T10:49:04.455Z,23.39
2019-05-09T10:51:34.713Z,22.95
2019-05-09T10:54:07.851Z,22.52
2019-05-09T10:56:38.469Z,22.52
2019-05-09T10:59:09.400Z,22.35
2019-05-09T11:01:39.694Z,22.01
2019-05-09T11:04:09.924Z,21.48
2019-05-09T11:06:40.160Z,21.35
2019-05-09T11:09:11.200Z,21.13
2019-05-09T11:11:41.646Z,20.93
2019-05-09T11:14:27.958Z,20.77
2019-05-09T11:16:59.155Z,20.72
2019-05-09T11:19:21.654Z,20.61
2019-05-09T11:21:53.644Z,20.60
2019-05-09T11:24:45.856Z,20.57
2019-05-09T11:27:10.317Z,20.59
2019-05-09T11:29:40.699Z,20.59
2019-05-09T11:32:11.371Z,20.49
2019-05-09T11:34:42.001Z,20.43
2019-05-09T11:37:12.692Z,20.22
2019-05-09T11:39:43.414Z,20.09
2019-05-09T11:42:14.079Z,20.29
2019-05-09T11:44:46.396Z,20.63
2019-05-09T11:47:31.911Z,20.95
2019-05-09T11:49:49.483Z,21.18
2019-05-09T11:52:19.857Z,21.49
2019-05-09T11:54:50.521Z,21.64
2019-05-09T11:57:20.883Z,21.61
2019-05-09T11:59:51.463Z,21.50
2019-05-09T12:02:22.194Z,21.29
2019-05-09T12:04:53.525Z,21.07
2019-05-09T12:07:23.758Z,21.09
2019-05-09T12:09:54.319Z,21.08
2019-05-09T12:12:28.316Z,21.20
2019-05-09T12:14:58.250Z,21.27
2019-05-09T12:17:40.766Z,21.08
2019-05-09T12:20:09.852Z,21.00
2019-05-09T12:22:33.735Z,21.06
2019-05-09T12:25:08.572Z,21.18
2019-05-09T12:27:39.457Z,21.21
2019-05-09T12:30:10.330Z,21.36
2019-05-09T12:32:40.581Z,21.48
2019-05-09T12:35:10.879Z,21.51
2019-05-09T12:37:43.170Z,21.36
2019-05-09T12:40:14.290Z,21.18
2019-05-09T12:42:45.183Z,21.16
2019-05-09T12:45:18.004Z,21.33
2019-05-09T12:47:48.698Z,21.57
2019-05-09T12:50:19.804Z,21.46
2019-05-09T12:52:51.206Z,21.34
2019-05-09T12:55:21.933Z,20.97
2019-05-09T12:57:52.333Z,20.82
2019-05-09T13:00:23.196Z,20.79
2019-05-09T13:02:55.469Z,21.04
2019-05-09T13:05:27.397Z,21.15
2019-05-09T13:07:58.339Z,21.14
2019-05-09T13:10:28.999Z,21.15
2019-05-09T13:12:59.647Z,21.27
2019-05-09T13:15:32.051Z,21.36
2019-05-09T13:18:02.339Z,21.44
2019-05-09T13:20:32.736Z,21.48
2019-05-09T13:23:03.331Z,21.43
2019-05-09T13:25:33.983Z,21.31
2019-05-09T13:28:04.525Z,21.25
2019-05-09T13:30:34.810Z,21.12
2019-05-09T13:33:09.884Z,21.06
2019-05-09T13:35:40.690Z,21.03
2019-05-09T13:38:11.526Z,20.97
2019-05-09T13:40:41.777Z,20.85
2019-05-09T13:43:13.716Z,20.67
2019-05-09T13:45:43.983Z,20.69
2019-05-09T13:48:32.135Z,20.70
2019-05-09T13:50:48.013Z,20.61
2019-05-09T13:53:19.918Z,20.43
2019-05-09T13:55:50.837Z,20.37
2019-05-09T13:58:21.609Z,20.30
2019-05-09T14:00:58.917Z,20.24
2019-05-09T14:03:24.663Z,20.18
2019-05-09T14:05:54.941Z,20.04
2019-05-09T14:08:25.259Z,19.98
2019-05-09T14:10:58.283Z,19.91
2019-05-09T14:13:30.296Z,19.75
2019-05-09T14:16:15.634Z,19.41
2019-05-09T14:18:33.935Z,19.20
2019-05-09T14:21:04.291Z,19.00
2019-05-09T14:23:36.887Z,18.85
2019-05-09T14:26:09.352Z,18.66
2019-05-09T14:28:39.150Z,18.59
2019-05-09T14:31:10.120Z,18.49
2019-05-09T14:33:40.461Z,18.46
2019-05-09T14:36:11.101Z,18.48
2019-05-09T14:38:41.463Z,18.40
2019-05-09T14:41:11.688Z,18.38
2019-05-09T14:43:42.315Z,18.27
2019-05-09T14:46:12.776Z,18.16
2019-05-09T14:48:43.345Z,18.06
2019-05-09T14:51:15.263Z,17.90
2019-05-09T14:53:45.835Z,17.79
2019-05-09T14:56:16.474Z,17.74
2019-05-09T14:58:48.541Z,17.64
2019-05-09T15:01:19.309Z,17.58
2019-05-09T15:04:03.465Z,17.50
2019-05-09T15:06:33.785Z,17.42
2019-05-09T15:09:08.261Z,17.26
2019-05-09T15:11:39.844Z,17.07
2019-05-09T15:14:13.322Z,17.05
2019-05-09T15:16:43.883Z,17.02
2019-05-09T15:19:14.550Z,16.91
2019-05-09T15:21:45.224Z,16.84
2019-05-09T15:24:15.893Z,16.80
2019-05-09T15:26:47.909Z,16.74
2019-05-09T15:29:18.695Z,16.70
2019-05-09T15:31:54.456Z,16.64
2019-05-09T15:34:23.289Z,16.60
2019-05-09T15:36:54.867Z,16.53
2019-05-09T15:39:27.786Z,16.52
2019-05-09T15:41:58.144Z,16.57
2019-05-09T15:44:28.969Z,16.57
2019-05-09T15:47:00.898Z,16.63
2019-05-09T15:49:41.966Z,16.57
2019-05-09T15:52:13.834Z,16.51
2019-05-09T15:54:44.496Z,16.48
2019-05-09T15:57:17.613Z,16.44
2019-05-09T15:59:48.105Z,16.34
2019-05-09T16:02:20.521Z,16.30
2019-05-09T16:04:50.828Z,16.29
2019-05-09T16:07:21.684Z,16.27
2019-05-09T16:09:52.046Z,16.22
2019-05-09T16:12:22.295Z,16.18
2019-05-09T16:14:54.071Z,16.19
2019-05-09T16:17:28.554Z,16.19
2019-05-09T16:20:04.912Z,16.19
2019-05-09T16:22:39.266Z,16.16
2019-05-09T16:25:10.266Z,16.09
2019-05-09T16:27:42.132Z,16.05
2019-05-09T16:30:12.550Z,15.99
2019-05-09T16:32:42.786Z,16.01
2019-05-09T16:35:13.117Z,15.94
2019-05-09T16:38:01.750Z,15.92
2019-05-09T16:40:16.122Z,15.79
2019-05-09T16:42:47.488Z,15.74
2019-05-09T16:45:18.488Z,15.64
2019-05-09T16:47:49.178Z,15.58
2019-05-09T16:50:20.002Z,15.56
2019-05-09T16:52:50.719Z,15.46
2019-05-09T16:55:23.023Z,15.39
2019-05-09T16:57:58.771Z,15.27
2019-05-09T17:00:32.253Z,15.30
2019-05-09T17:03:04.603Z,15.19
2019-05-09T17:05:37.451Z,15.01
2019-05-09T17:08:08.365Z,14.94
2019-05-09T17:10:38.757Z,14.80
2019-05-09T17:13:09.326Z,14.72
2019-05-09T17:15:40.173Z,14.61
2019-05-09T17:18:10.925Z,14.58
2019-05-09T17:20:48.414Z,14.45
2019-05-09T17:23:21.783Z,14.35
2019-05-09T17:25:52.077Z,14.08
2019-05-09T17:28:22.766Z,14.13
2019-05-09T17:30:53.544Z,14.09
2019-05-09T17:33:24.280Z,14.03
2019-05-09T17:35:54.915Z,13.91
2019-05-09T17:38:27.897Z,13.85
2019-05-09T17:40:57.967Z,13.76
2019-05-09T17:43:29.011Z,13.72
2019-05-09T17:45:59.828Z,13.61
2019-05-09T17:48:30.146Z,13.53
2019-05-09T17:51:00.776Z,13.48
2019-05-09T17:53:33.661Z,13.36
2019-05-09T17:56:03.453Z,13.30
2019-05-09T17:58:33.684Z,13.25
2019-05-09T18:01:04.301Z,13.18
2019-05-09T18:03:34.651Z,13.11
2019-05-09T18:06:08.111Z,13.00
2019-05-09T18:08:37.864Z,12.92
2019-05-09T18:11:10.056Z,12.84
2019-05-09T18:13:41.175Z,12.80
2019-05-09T18:16:12.014Z,12.74
2019-05-09T18:18:42.407Z,12.69
2019-05-09T18:21:17.651Z,12.62
2019-05-09T18:23:47.998Z,12.55
2019-05-09T18:26:18.738Z,12.48
2019-05-09T18:28:50.118Z,12.44
2019-05-09T18:31:22.614Z,12.42
2019-05-09T18:33:54.977Z,12.39
2019-05-09T18:36:25.327Z,12.31
2019-05-09T18:38:55.563Z,12.27
2019-05-09T18:41:28.511Z,12.13
2019-05-09T18:43:58.123Z,12.12
2019-05-09T18:46:28.776Z,12.13
2019-05-09T18:48:59.428Z,12.08
2019-05-09T18:51:29.743Z,12.10
2019-05-09T18:54:00.348Z,12.13
2019-05-09T18:56:30.641Z,12.04
2019-05-09T18:59:01.211Z,12.02
2019-05-09T19:01:31.974Z,12.02
2019-05-09T19:04:07.979Z,11.96
2019-05-09T19:06:39.915Z,11.89
2019-05-09T19:09:11.888Z,11.87
2019-05-09T19:11:43.158Z,11.83
2019-05-09T19:14:15.376Z,11.83
2019-05-09T19:16:50.564Z,11.85
2019-05-09T19:19:25.456Z,11.83
2019-05-09T19:22:04.623Z,11.81
2019-05-09T19:24:32.356Z,11.79
2019-05-09T19:27:02.613Z,11.78
2019-05-09T19:29:33.219Z,11.75
2019-05-09T19:32:03.657Z,11.77
2019-05-09T19:34:35.704Z,11.71
2019-05-09T19:37:06.406Z,11.69
2019-05-09T19:39:36.908Z,11.68
2019-05-09T19:42:07.211Z,11.72
2019-05-09T19:44:37.598Z,11.76
2019-05-09T19:47:07.839Z,11.64
2019-05-09T19:49:38.441Z,11.63
2019-05-09T19:52:09.017Z,11.58
2019-05-09T19:54:40.742Z,11.56
2019-05-09T19:57:11.393Z,11.52
2019-05-09T19:59:41.703Z,11.46
2019-05-09T20:02:12.006Z,11.45
2019-05-09T20:04:42.252Z,11.47
2019-05-09T20:07:12.942Z,11.48
2019-05-09T20:09:44.911Z,11.49
2019-05-09T20:12:17.843Z,11.46
2019-05-09T20:14:49.940Z,11.45
2019-05-09T20:17:20.284Z,11.43
2019-05-09T20:19:50.531Z,11.43
2019-05-09T20:22:21.181Z,11.46
2019-05-09T20:24:53.765Z,11.48
2019-05-09T20:27:24.314Z,11.49
2019-05-09T20:29:55.064Z,11.46
2019-05-09T20:32:25.706Z,11.43
2019-05-09T20:34:56.421Z,11.39
2019-05-09T20:37:26.916Z,11.34
2019-05-09T20:39:57.733Z,11.35
2019-05-09T20:42:29.883Z,11.34
2019-05-09T20:45:00.741Z,11.38
2019-05-09T20:47:31.767Z,11.37
2019-05-09T20:50:06.115Z,11.35
2019-05-09T20:52:37.015Z,11.32
2019-05-09T20:55:07.855Z,11.25
2019-05-09T20:57:38.361Z,11.23
2019-05-09T21:00:09.599Z,11.21
2019-05-09T21:02:42.997Z,11.19
2019-05-09T21:05:13.558Z,11.17
2019-05-09T21:07:45.646Z,11.22
2019-05-09T21:10:16.810Z,11.23
2019-05-09T21:12:47.625Z,11.28
2019-05-09T21:15:18.539Z,11.24
2019-05-09T21:17:49.010Z,11.19
2019-05-09T21:20:19.458Z,11.17
2019-05-09T21:22:49.957Z,11.13
2019-05-09T21:25:20.382Z,11.08
2019-05-09T21:27:50.787Z,11.06
2019-05-09T21:30:21.652Z,11.09
2019-05-09T21:32:52.443Z,11.09
2019-05-09T21:35:22.715Z,11.09
2019-05-09T21:37:52.938Z,11.10
2019-05-09T21:40:23.519Z,11.07
2019-05-09T21:42:54.254Z,11.05
2019-05-09T21:45:25.003Z,11.03
2019-05-09T21:47:55.647Z,11.00
2019-05-09T21:50:25.962Z,11.02
2019-05-09T21:52:56.179Z,11.00
2019-05-09T21:55:26.943Z,11.00
2019-05-09T21:57:57.322Z,11.03
2019-05-09T22:00:36.108Z,11.05
2019-05-09T22:03:07.244Z,11.07
2019-05-09T22:05:38.203Z,11.08
2019-05-09T22:08:08.922Z,11.05
2019-05-09T22:10:39.623Z,11.05
2019-05-09T22:13:10.200Z,11.07
2019-05-09T22:15:40.423Z,11.05
2019-05-09T22:18:10.681Z,11.02
2019-05-09T22:20:41.245Z,11.03
2019-05-09T22:23:11.543Z,10.96
2019-05-09T22:25:42.031Z,10.96
2019-05-09T22:28:12.630Z,10.98
2019-05-09T22:30:43.275Z,10.97
2019-05-09T22:33:13.979Z,11.00
2019-05-09T22:35:44.712Z,10.94
2019-05-09T22:38:15.378Z,10.89
2019-05-09T22:40:45.854Z,10.90
2019-05-09T22:43:16.460Z,10.88
2019-05-09T22:45:47.105Z,10.85
2019-05-09T22:48:17.741Z,10.89
2019-05-09T22:50:48.065Z,10.88
2019-05-09T22:53:19.802Z,10.90
2019-05-09T22:55:50.466Z,10.89
2019-05-09T22:58:20.767Z,10.84
2019-05-09T23:00:51.171Z,10.80
2019-05-09T23:03:21.428Z,10.89
2019-05-09T23:05:51.823Z,10.83
2019-05-09T23:08:22.393Z,10.77
2019-05-09T23:10:53.645Z,10.78
2019-05-09T23:13:24.401Z,10.74
2019-05-09T23:15:54.724Z,10.76
2019-05-09T23:18:25.294Z,10.63
2019-05-09T23:20:56.846Z,10.81
2019-05-09T23:23:28.907Z,10.76
2019-05-09T23:25:59.623Z,10.77
2019-05-09T23:28:30.060Z,10.73
2019-05-09T23:31:04.967Z,10.75
2019-05-09T23:33:36.824Z,10.71
2019-05-09T23:36:08.768Z,10.69
2019-05-09T23:38:57.175Z,10.68
2019-05-09T23:41:27.894Z,10.65
2019-05-09T23:43:58.184Z,10.65
2019-05-09T23:46:28.868Z,10.60
2019-05-09T23:48:59.508Z,10.52
2019-05-09T23:51:45.500Z,10.48
2019-05-09T23:54:45.787Z,10.45
2019-05-09T23:57:28.453Z,10.44
